Time;durP1;ratioP1;P1;durP2;ratioP2;P2;SDS_P1;SDS_P2;PMS_P1;PMS_P2;Temp;Humidity;BMP_temperature;BMP_pressure;BME280_temperature;BME280_humidity;BME280_pressure;Samples;Min_cycle;Max_cycle;Signal;HPM_P1;HPM_P2
2022/01/25 00:26:19;;;;;;;;;68.50;54.00;;;;;5.87;58.80;102857.72;4885554;29;45984;-72
2022/01/25 00:28:51;;;;;;;;;64.50;51.25;;;;;5.82;58.97;102850.56;4875076;29;45233;-72
2022/01/25 00:31:17;;;;;;;;;66.75;53.00;;;;;5.65;58.19;102834.31;4885160;29;45212;-72
2022/01/25 00:33:52;;;;;;;;;66.50;53.25;;;;;5.74;59.15;102861.88;4882734;29;45553;-72
2022/01/25 00:36:23;;;;;;;;;65.50;53.00;;;;;5.65;58.19;102853.72;4885099;29;46016;-72
2022/01/25 00:38:50;;;;;;;;;62.50;48.75;;;;;5.60;59.22;102851.81;4885636;29;45392;-72
2022/01/25 00:41:17;;;;;;;;;68.25;52.50;;;;;5.60;59.36;102867.72;4880603;29;45467;-72
2022/01/25 00:43:44;;;;;;;;;66.00;51.75;;;;;5.53;58.30;102871.97;4884865;29;46366;-72
2022/01/25 00:46:12;;;;;;;;;64.00;50.25;;;;;5.46;58.99;102873.59;4884884;29;45308;-72
2022/01/25 00:48:48;;;;;;;;;69.25;51.50;;;;;5.42;58.69;102869.09;4885185;29;45239;-72
2022/01/25 00:51:57;;;;;;;;;64.00;49.50;;;;;5.38;58.99;102860.19;4884878;29;45375;-72
2022/01/25 00:54:16;;;;;;;;;53.75;45.00;;;;;5.36;58.84;102869.88;4875684;29;45349;-72
2022/01/25 00:56:48;;;;;;;;;63.00;48.25;;;;;5.28;59.43;102852.00;4885032;29;45241;-72
2022/01/25 00:59:16;;;;;;;;;55.25;44.00;;;;;5.24;59.21;102850.13;4885379;29;45189;-72
2022/01/25 01:01:43;;;;;;;;;60.75;46.50;;;;;5.30;59.50;102858.25;4884592;29;45309;-72
2022/01/25 01:04:10;;;;;;;;;51.75;43.50;;;;;5.25;59.00;102850.19;4884958;29;45277;-72
2022/01/25 01:06:37;;;;;;;;;57.50;45.75;;;;;5.28;58.89;102854.63;4898992;29;46011;-72
2022/01/25 01:09:04;;;;;;;;;57.00;46.25;;;;;5.24;59.52;102858.97;4885101;29;45256;-72
2022/01/25 01:11:40;;;;;;;;;59.75;48.25;;;;;5.22;59.61;102859.81;4884505;29;45367;-72
2022/01/25 01:36:27;;;;;;;;;57.75;42.00;;;;;5.09;59.50;102863.91;4884609;29;45897;-72
2022/01/25 01:41:46;;;;;;;;;44.75;40.25;;;;;5.09;59.38;102856.84;4884210;29;45501;-72
2022/01/25 01:44:11;;;;;;;;;51.00;40.25;;;;;5.06;59.37;102863.81;4874426;29;45511;-72
2022/01/25 01:46:55;;;;;;;;;50.75;42.75;;;;;5.06;59.92;102870.03;4884279;29;46054;-72
2022/01/25 01:49:20;;;;;;;;;50.75;41.25;;;;;4.99;59.05;102857.50;4884110;29;45224;-72
2022/01/25 01:51:48;;;;;;;;;39.50;34.50;;;;;4.97;59.51;102857.44;4883979;29;45459;-72
2022/01/25 01:54:15;;;;;;;;;49.00;40.75;;;;;4.93;59.79;102860.88;4884186;29;45491;-72
2022/01/25 01:56:42;;;;;;;;;47.50;40.75;;;;;4.97;59.52;102872.44;4883960;29;45362;-72
2022/01/25 01:59:10;;;;;;;;;37.50;37.00;;;;;4.90;59.94;102862.56;4884493;29;45747;-72
2022/01/25 02:01:39;;;;;;;;;53.50;43.75;;;;;4.93;59.35;102874.13;4883431;29;45212;-72
2022/01/25 02:04:06;;;;;;;;;47.50;39.00;;;;;4.92;60.43;102876.72;4884312;29;45333;-72
2022/01/25 02:06:32;;;;;;;;;38.25;32.25;;;;;4.90;60.07;102876.69;4883739;29;46273;-72
2022/01/25 02:08:58;;;;;;;;;41.00;34.50;;;;;4.91;60.06;102873.19;4883837;29;45249;-72
2022/01/25 02:11:24;;;;;;;;;49.75;39.50;;;;;4.91;59.75;102873.19;4884075;29;45185;-72
2022/01/25 02:13:51;;;;;;;;;44.00;38.75;;;;;4.88;59.99;102859.88;4871607;29;45210;-72
2022/01/25 02:24:31;;;;;;;;;55.00;39.25;;;;;4.89;60.71;102880.19;4883994;29;45333;-71
2022/01/25 02:26:57;;;;;;;;;58.00;44.00;;;;;4.81;59.89;102873.78;4883591;29;46080;-72
2022/01/25 02:29:24;;;;;;;;;47.50;38.50;;;;;4.75;60.36;102863.97;4883977;29;45391;-72
2022/01/25 02:31:49;;;;;;;;;47.00;37.75;;;;;4.71;59.90;102859.47;4882983;29;45525;-72
2022/01/25 02:34:14;;;;;;;;;44.75;40.25;;;;;4.82;60.33;102876.47;4883964;29;45233;-72
2022/01/25 02:36:40;;;;;;;;;46.75;39.00;;;;;4.82;60.28;102873.84;4883560;29;46333;-71
2022/01/25 02:39:05;;;;;;;;;42.00;37.25;;;;;4.80;60.71;102878.19;4883834;29;45460;-72
2022/01/25 02:41:32;;;;;;;;;49.25;33.25;;;;;4.82;60.21;102878.25;4874775;29;45324;-72
2022/01/25 02:43:58;;;;;;;;;47.75;37.75;;;;;4.71;60.58;102855.88;4883526;29;45394;-72
2022/01/25 02:49:00;;;;;;;;;32.75;30.00;;;;;4.79;60.25;102875.50;4883505;29;45594;-72
2022/01/25 02:51:29;;;;;;;;;46.25;41.25;;;;;4.79;60.45;102872.88;4883641;29;45173;-72
2022/01/25 02:53:55;;;;;;;;;49.50;38.75;;;;;4.79;60.63;102868.50;4886789;29;45513;-72
2022/01/25 02:56:22;;;;;;;;;43.75;38.25;;;;;4.83;60.91;102872.09;4886703;29;45396;-72
2022/01/25 02:58:48;;;;;;;;;44.50;38.75;;;;;4.78;60.33;102871.97;4887005;29;45397;-72
2022/01/25 03:01:13;;;;;;;;;47.00;39.25;;;;;4.75;60.10;102874.53;4886478;29;45422;-71
2022/01/25 03:03:39;;;;;;;;;42.75;35.25;;;;;4.76;60.89;102879.00;4886552;29;45377;-72
2022/01/25 03:06:04;;;;;;;;;49.25;40.75;;;;;4.71;60.79;102871.75;4886589;29;46156;-72
2022/01/25 03:08:30;;;;;;;;;37.75;34.50;;;;;4.66;60.80;102876.97;4886578;29;45487;-72
2022/01/25 03:10:56;;;;;;;;;39.00;33.25;;;;;4.62;60.46;102873.31;4886552;29;45436;-72
2022/01/25 03:13:28;;;;;;;;;36.50;34.00;;;;;4.65;60.79;102880.44;4886762;29;45325;-72
2022/01/25 03:15:58;;;;;;;;;44.00;38.75;;;;;4.59;60.45;102870.63;4886692;29;46851;-71
2022/01/25 03:21:01;;;;;;;;;47.75;39.25;;;;;4.61;61.45;102871.53;4885801;29;45423;-71
2022/01/25 03:23:29;;;;;;;;;30.25;25.75;;;;;4.59;60.78;102865.31;4885170;29;45309;-71
2022/01/25 03:25:54;;;;;;;;;38.25;34.00;;;;;4.68;61.45;102877.88;4886375;29;45553;-71
2022/01/25 03:28:20;;;;;;;;;42.25;34.50;;;;;4.55;60.67;102847.56;4886291;29;45169;-71
2022/01/25 03:30:47;;;;;;;;;45.75;39.00;;;;;4.61;60.54;102860.97;4886320;29;45293;-71
2022/01/25 03:33:14;;;;;;;;;41.50;36.00;;;;;4.67;61.30;102867.28;4886045;29;45431;-71
2022/01/25 03:35:40;;;;;;;;;41.50;33.00;;;;;4.63;61.15;102853.06;4886094;29;46361;-71
2022/01/25 03:38:06;;;;;;;;;34.75;32.25;;;;;4.57;60.63;102851.13;4886244;29;45404;-71
2022/01/25 03:40:31;;;;;;;;;39.75;31.75;;;;;4.64;60.80;102868.06;4886053;29;45328;-71
2022/01/25 03:42:59;;;;;;;;;41.50;34.50;;;;;4.61;61.62;102858.31;4885646;29;45292;-71
2022/01/25 03:45:33;;;;;;;;;52.75;37.50;;;;;4.48;61.02;102835.03;4900583;29;48453;-71
2022/01/25 03:50:39;;;;;;;;;43.25;37.25;;;;;4.51;60.95;102837.78;4886158;29;45491;-71
2022/01/25 03:53:05;;;;;;;;;53.50;43.00;;;;;4.51;60.98;102842.16;4885420;29;45539;-71
2022/01/25 03:55:30;;;;;;;;;43.75;36.25;;;;;4.54;61.41;102850.16;4885983;29;46102;-71
2022/01/25 03:57:55;;;;;;;;;45.50;39.25;;;;;4.57;61.44;102842.31;4886060;29;45327;-71
2022/01/25 04:00:21;;;;;;;;;52.00;41.50;;;;;4.58;60.72;102841.47;4883794;29;45524;-71
2022/01/25 04:02:54;;;;;;;;;43.75;39.75;;;;;4.58;61.34;102834.41;4883710;29;45288;-71
2022/01/25 04:05:24;;;;;;;;;33.00;32.00;;;;;4.57;61.59;102829.09;4885813;29;46429;-71
2022/01/25 04:07:50;;;;;;;;;46.25;39.75;;;;;4.56;62.23;102829.94;4885679;29;45747;-71
2022/01/25 04:10:19;;;;;;;;;48.25;41.25;;;;;4.62;61.41;102843.31;4884908;29;45328;-71
2022/01/25 04:12:46;;;;;;;;;43.25;38.50;;;;;4.64;61.86;102846.91;4873255;29;45287;-71
2022/01/25 04:15:11;;;;;;;;;49.75;42.25;;;;;4.58;61.28;102841.47;4885784;29;46785;-71
2022/01/25 04:17:38;;;;;;;;;49.50;43.75;;;;;4.60;61.49;102848.56;4885507;29;45404;-71
2022/01/25 04:25:20;;;;;;;;;41.00;37.50;;;;;4.68;61.78;102863.75;4885406;29;45462;-71
2022/01/25 04:27:45;;;;;;;;;51.75;42.00;;;;;4.67;61.90;102868.16;4885648;29;45458;-71
2022/01/25 04:30:11;;;;;;;;;42.00;38.75;;;;;4.66;62.08;102858.44;4884778;29;45325;-71
2022/01/25 04:35:25;;;;;;;;;40.50;38.00;;;;;4.60;61.30;102848.56;4885431;29;45412;-71
2022/01/25 04:59:40;;;;;;;;;47.50;40.25;;;;;4.45;62.79;102861.41;4872600;29;45262;-72
2022/01/25 05:02:35;;;;;;;;;45.75;42.00;;;;;4.47;62.81;102861.44;4884637;29;45273;-72
2022/01/25 05:04:59;;;;;;;;;48.50;42.25;;;;;4.38;61.94;102852.41;4885323;29;45494;-72
2022/01/25 05:07:32;;;;;;;;;42.25;39.50;;;;;4.43;62.28;102865.75;4899003;29;48355;-72
2022/01/25 05:09:59;;;;;;;;;42.75;40.00;;;;;4.45;63.07;102867.56;4899366;29;45788;-72
2022/01/25 05:12:39;;;;;;;;;51.75;42.50;;;;;4.39;62.58;102859.50;4881896;29;45247;-72
2022/01/25 05:18:39;;;;;;;;;53.00;45.75;;;;;4.47;62.84;102864.97;4881845;29;46062;-72
2022/01/25 05:23:26;;;;;;;;;49.25;39.75;;;;;4.42;62.31;102853.38;4883150;29;45392;-72
2022/01/25 05:25:52;;;;;;;;;52.25;42.00;;;;;4.52;63.11;102868.63;4899047;29;45636;-72
2022/01/25 05:28:17;;;;;;;;;51.50;42.00;;;;;4.47;62.96;102856.16;4884809;29;46529;-72
2022/01/25 05:30:43;;;;;;;;;60.25;45.25;;;;;4.45;62.37;102853.47;4883574;29;45614;-72
2022/01/25 05:33:08;;;;;;;;;58.00;45.50;;;;;4.53;62.50;102858.97;4884868;29;45317;-72
2022/01/25 05:35:34;;;;;;;;;49.25;42.25;;;;;4.62;62.19;102870.66;4884253;29;45415;-72
2022/01/25 05:37:59;;;;;;;;;52.50;41.75;;;;;4.60;62.83;102863.56;4884004;29;46174;-72
2022/01/25 05:40:55;;;;;;;;;50.75;42.00;;;;;4.68;62.75;102872.59;4898580;29;45301;-72
2022/01/25 05:48:29;;;;;;;;;55.25;43.75;;;;;4.75;62.26;102874.53;4884135;29;45538;-71
2022/01/25 05:50:55;;;;;;;;;57.00;42.00;;;;;4.75;62.88;102869.25;4883704;29;46074;-72
2022/01/25 05:53:21;;;;;;;;;58.50;44.75;;;;;4.78;62.53;102879.03;4884570;29;45464;-71
2022/01/25 05:55:46;;;;;;;;;52.00;41.25;;;;;4.76;62.27;102873.69;4884230;29;45519;-71
2022/01/25 05:58:12;;;;;;;;;55.25;45.75;;;;;4.72;62.49;102871.81;4898868;29;45876;-72
2022/01/25 06:00:38;;;;;;;;;51.00;42.00;;;;;4.76;62.47;102872.78;4883708;29;45745;-71
2022/01/25 06:03:05;;;;;;;;;50.75;43.75;;;;;4.73;62.50;102864.78;4884562;29;45434;-72
2022/01/25 06:05:34;;;;;;;;;52.00;43.00;;;;;4.77;63.01;102872.81;4884157;29;45275;-71
2022/01/25 06:08:00;;;;;;;;;59.75;43.75;;;;;4.78;62.04;102868.44;4883989;29;45392;-71
2022/01/25 06:10:26;;;;;;;;;51.75;43.75;;;;;4.72;62.40;102853.28;4883843;29;45617;-71
2022/01/25 06:12:51;;;;;;;;;61.25;47.25;;;;;4.76;62.73;102867.47;4883717;29;45411;-71
2022/01/25 06:15:16;;;;;;;;;55.00;44.00;;;;;4.71;62.57;102864.75;4884286;29;45293;-71
2022/01/25 06:17:42;;;;;;;;;55.25;45.25;;;;;4.77;62.71;102874.59;4883917;29;45328;-71
2022/01/25 06:20:08;;;;;;;;;56.00;45.25;;;;;4.74;62.64;102867.44;4894606;29;45743;-71
2022/01/25 06:22:34;;;;;;;;;53.50;43.50;;;;;4.74;62.69;102858.63;4877505;29;45388;-72
2022/01/25 06:24:59;;;;;;;;;59.00;47.25;;;;;4.71;63.03;102858.53;4884201;29;45371;-71
2022/01/25 06:27:25;;;;;;;;;61.75;48.25;;;;;4.80;62.66;102870.25;4887077;29;45340;-71
2022/01/25 06:29:54;;;;;;;;;56.50;43.00;;;;;4.81;62.68;102877.34;4887439;29;45387;-72
2022/01/25 06:32:20;;;;;;;;;55.25;43.75;;;;;4.84;62.51;102881.81;4900146;29;45924;-72
2022/01/25 06:34:46;;;;;;;;;49.75;42.00;;;;;4.83;62.66;102886.22;4887456;29;45362;-72
2022/01/25 06:37:13;;;;;;;;;56.00;45.00;;;;;4.80;62.31;102883.50;4886422;29;46683;-72
2022/01/25 06:39:39;;;;;;;;;59.75;43.25;;;;;4.85;62.50;102877.44;4887056;29;45805;-72
2022/01/25 06:42:06;;;;;;;;;56.50;46.00;;;;;4.79;62.92;102880.81;4886888;29;45268;-72
2022/01/25 06:44:34;;;;;;;;;64.25;48.75;;;;;4.81;62.45;102876.44;4886511;29;45358;-72
2022/01/25 06:46:59;;;;;;;;;65.75;46.00;;;;;4.77;63.14;102869.28;4887014;29;46071;-72
2022/01/25 06:49:25;;;;;;;;;52.25;42.75;;;;;4.78;62.12;102866.69;4885968;29;45346;-72
2022/01/25 06:51:50;;;;;;;;;56.50;44.75;;;;;4.68;62.97;102843.50;4884965;29;45435;-72
2022/01/25 06:54:17;;;;;;;;;53.50;44.25;;;;;4.81;63.11;102866.78;4886461;29;45482;-72
2022/01/25 06:56:42;;;;;;;;;48.75;44.00;;;;;4.81;62.41;102866.78;4901047;29;47177;-72
2022/01/25 06:59:07;;;;;;;;;63.50;46.75;;;;;4.76;62.69;102854.25;4885180;29;45448;-72
2022/01/25 07:01:33;;;;;;;;;56.75;46.50;;;;;4.64;62.74;102844.25;4886725;29;45805;-68
2022/01/25 07:03:58;;;;;;;;;57.25;45.25;;;;;4.77;63.05;102871.94;4899782;29;45603;-69
2022/01/25 07:06:24;;;;;;;;;56.00;45.75;;;;;4.63;62.78;102847.78;4884572;29;48101;-69
2022/01/25 07:08:52;;;;;;;;;55.00;45.50;;;;;4.76;62.88;102867.47;4886302;29;45371;-70
2022/01/25 07:11:29;;;;;;;;;61.25;46.25;;;;;4.68;62.70;102853.16;4901176;29;45425;-70
2022/01/25 07:13:55;;;;;;;;;58.75;47.00;;;;;4.64;62.66;102850.47;4885023;29;45483;-70
2022/01/25 07:16:25;;;;;;;;;61.00;48.00;;;;;4.65;62.77;102859.28;4886805;29;46291;-70
2022/01/25 07:18:51;;;;;;;;;61.00;47.00;;;;;4.32;62.80;102807.28;4885508;29;45901;-70
2022/01/25 07:21:26;;;;;;;;;53.25;44.25;;;;;4.49;63.34;102835.94;4885578;29;45414;-70
2022/01/25 07:23:59;;;;;;;;;59.25;45.75;;;;;4.45;63.21;102825.25;4883457;29;45254;-70
2022/01/25 07:26:24;;;;;;;;;57.75;46.00;;;;;4.77;62.85;102886.06;4881486;29;46165;-76
2022/01/25 07:28:50;;;;;;;;;55.25;46.50;;;;;4.67;63.21;102870.78;4885872;29;45487;-74
2022/01/25 07:31:15;;;;;;;;;62.00;47.75;;;;;4.73;62.95;102883.31;4886197;29;45512;-74
2022/01/25 07:33:41;;;;;;;;;61.00;48.00;;;;;4.85;63.01;102888.03;4884714;29;45454;-75
2022/01/25 07:36:06;;;;;;;;;68.25;48.00;;;;;4.79;62.95;102884.38;4885812;29;45334;-74
2022/01/25 07:38:32;;;;;;;;;65.25;48.50;;;;;4.77;62.88;102888.69;4881292;29;45435;-72
2022/01/25 07:40:57;;;;;;;;;55.75;46.00;;;;;4.77;63.31;102890.47;4883019;29;45407;-74
2022/01/25 07:43:23;;;;;;;;;56.25;45.75;;;;;4.83;63.09;102902.09;4885703;29;45394;-75
2022/01/25 07:45:53;;;;;;;;;58.50;46.50;;;;;4.82;62.67;102896.75;4900227;29;47947;-75
2022/01/25 07:48:20;;;;;;;;;61.00;48.75;;;;;4.80;63.78;102895.84;4885941;29;45847;-75
2022/01/25 07:50:45;;;;;;;;;63.00;51.00;;;;;4.82;62.96;102895.00;4884606;29;45243;-74
2022/01/25 07:53:11;;;;;;;;;56.50;44.25;;;;;4.75;63.76;102887.78;4885670;29;45471;-75
2022/01/25 07:55:36;;;;;;;;;61.25;49.00;;;;;4.80;63.69;102901.13;4878682;29;46196;-75
2022/01/25 07:58:03;;;;;;;;;59.50;46.50;;;;;4.82;63.52;102907.34;4878618;29;45412;-75
2022/01/25 08:00:28;;;;;;;;;58.50;44.00;;;;;4.87;63.13;102918.06;4882335;29;45511;-74
2022/01/25 08:02:54;;;;;;;;;54.50;43.50;;;;;4.86;62.94;102906.59;4882842;29;45459;-68
2022/01/25 08:05:23;;;;;;;;;57.50;44.25;;;;;4.88;63.22;102901.31;4884343;29;45527;-73
2022/01/25 08:07:48;;;;;;;;;56.50;44.25;;;;;4.99;63.40;102914.00;4890914;29;45520;-74
2022/01/25 08:10:14;;;;;;;;;57.75;45.50;;;;;4.99;63.17;102910.44;4872468;29;45527;-73
2022/01/25 08:12:39;;;;;;;;;50.75;41.50;;;;;4.97;62.81;102912.16;4883929;29;45466;-73
2022/01/25 08:15:07;;;;;;;;;54.00;43.50;;;;;4.99;62.96;102927.22;4882942;29;48520;-74
2022/01/25 08:17:32;;;;;;;;;63.00;47.25;;;;;4.98;62.78;102928.06;4884389;29;45929;-73
2022/01/25 08:19:59;;;;;;;;;60.00;45.25;;;;;4.98;63.17;102932.47;4881470;29;45795;-73
2022/01/25 08:22:24;;;;;;;;;51.50;42.50;;;;;4.97;62.84;102930.69;4880786;29;45797;-73
2022/01/25 08:24:50;;;;;;;;;60.75;45.50;;;;;4.95;63.50;102930.63;4882607;29;45829;-73
2022/01/25 08:27:20;;;;;;;;;53.00;44.50;;;;;4.95;63.37;102930.63;4880446;29;46051;-73
2022/01/25 08:29:46;;;;;;;;;60.75;46.00;;;;;4.92;63.48;102927.91;4884913;29;45307;-74
2022/01/25 08:32:11;;;;;;;;;49.00;43.00;;;;;4.81;62.63;102914.41;4884687;29;45297;-74
2022/01/25 08:34:37;;;;;;;;;56.75;44.25;;;;;4.89;63.46;102933.09;4884011;29;46658;-73
2022/01/25 08:37:02;;;;;;;;;63.00;43.25;;;;;4.87;62.86;102920.72;4881891;29;45452;-73
2022/01/25 08:39:28;;;;;;;;;50.00;42.50;;;;;4.92;63.40;102934.94;4883050;29;45366;-73
2022/01/25 08:41:54;;;;;;;;;58.25;44.75;;;;;4.88;63.79;102931.34;4880338;29;45532;-73
2022/01/25 08:44:20;;;;;;;;;59.25;45.00;;;;;4.88;63.20;102933.06;4884027;29;45443;-73
2022/01/25 08:46:45;;;;;;;;;52.50;42.25;;;;;4.89;63.53;102932.22;4883967;29;45559;-73
2022/01/25 08:49:11;;;;;;;;;57.75;46.00;;;;;4.88;63.67;102933.97;4882443;29;45520;-73
2022/01/25 08:51:36;;;;;;;;;53.75;42.00;;;;;4.88;64.08;102926.03;4883959;29;45598;-74
2022/01/25 08:54:02;;;;;;;;;56.00;42.75;;;;;4.91;63.23;102922.56;4884229;29;46430;-73
2022/01/25 08:56:27;;;;;;;;;52.50;44.00;;;;;4.89;63.56;102919.00;4884160;29;45468;-74
2022/01/25 08:58:53;;;;;;;;;47.25;39.75;;;;;4.91;63.21;102928.78;4884661;29;45504;-73
2022/01/25 09:01:18;;;;;;;;;55.50;44.00;;;;;4.88;62.89;102923.41;4884604;29;45445;-73
2022/01/25 09:03:44;;;;;;;;;59.25;47.00;;;;;4.88;63.79;102936.63;4884148;29;46087;-73
2022/01/25 09:06:09;;;;;;;;;57.00;44.00;;;;;4.85;63.35;102935.66;4884032;29;45394;-73
2022/01/25 09:08:35;;;;;;;;;55.50;42.75;;;;;4.86;64.03;102933.06;4884477;29;45331;-73
2022/01/25 09:11:03;;;;;;;;;51.75;40.25;;;;;4.82;63.49;102933.81;4884091;29;45596;-73
2022/01/25 09:13:30;;;;;;;;;54.25;47.25;;;;;4.84;62.98;102937.38;4882986;29;45411;-73
2022/01/25 09:15:55;;;;;;;;;64.25;48.00;;;;;4.72;63.58;102916.78;4884235;29;45849;-73
2022/01/25 09:18:21;;;;;;;;;57.25;47.00;;;;;4.67;63.69;102926.34;4874494;29;45444;-73
2022/01/25 09:20:47;;;;;;;;;57.75;47.25;;;;;4.72;63.62;102937.97;4880002;29;45602;-73
2022/01/25 09:23:16;;;;;;;;;55.75;42.00;;;;;4.75;63.72;102939.81;4898433;29;46110;-74
2022/01/25 09:25:41;;;;;;;;;58.75;46.25;;;;;4.74;63.32;102943.28;4883385;29;45957;-73
2022/01/25 09:28:06;;;;;;;;;56.25;43.75;;;;;4.76;64.30;102945.13;4883794;29;45395;-73
2022/01/25 09:30:32;;;;;;;;;52.00;42.25;;;;;4.75;64.00;102940.69;4883874;29;45293;-73
2022/01/25 09:32:57;;;;;;;;;60.00;44.25;;;;;4.79;64.00;102953.16;4883929;29;45366;-73
2022/01/25 09:35:23;;;;;;;;;58.50;45.50;;;;;4.75;64.30;102943.34;4882625;29;45599;-74
2022/01/25 09:37:49;;;;;;;;;57.50;42.25;;;;;4.79;64.65;102958.47;4883406;29;45510;-74
2022/01/25 09:40:14;;;;;;;;;49.75;40.50;;;;;4.79;63.44;102947.88;4883470;29;45370;-73
2022/01/25 09:42:40;;;;;;;;;58.75;45.00;;;;;4.76;64.10;102958.38;4880924;29;45400;-73
2022/01/25 09:45:07;;;;;;;;;46.00;41.50;;;;;4.80;64.43;102956.69;4883825;29;45528;-74
2022/01/25 09:47:33;;;;;;;;;53.00;43.25;;;;;4.83;63.87;102960.31;4883501;29;45359;-73
2022/01/25 09:49:58;;;;;;;;;60.25;44.25;;;;;4.78;63.43;102948.72;4897782;29;45794;-73
2022/01/25 09:52:24;;;;;;;;;54.00;44.25;;;;;4.82;63.77;102962.91;4891504;29;47227;-73
2022/01/25 09:54:54;;;;;;;;;53.00;45.50;;;;;4.77;64.42;102964.53;4883310;29;45260;-73
2022/01/25 09:57:20;;;;;;;;;46.00;40.75;;;;;4.79;64.25;102962.81;4883533;29;45379;-74
2022/01/25 09:59:46;;;;;;;;;56.75;44.25;;;;;4.80;63.99;102965.53;4883022;29;45522;-72
2022/01/25 10:02:11;;;;;;;;;53.75;43.50;;;;;4.74;64.17;102956.53;4882220;29;45943;-74
2022/01/25 10:04:41;;;;;;;;;57.25;45.25;;;;;4.79;64.01;102965.47;4883862;29;45338;-73
2022/01/25 10:07:09;;;;;;;;;59.50;45.25;;;;;4.75;63.85;102959.22;4897828;29;45389;-72
2022/01/25 10:09:42;;;;;;;;;57.75;44.75;;;;;4.74;64.23;102954.75;4883256;29;45551;-76
2022/01/25 10:12:23;;;;;;;;;64.25;45.75;;;;;4.80;64.27;102964.63;4880190;29;46102;-73
2022/01/25 10:15:09;;;;;;;;;60.25;44.75;;;;;4.80;63.92;102962.88;4877624;29;45376;-73
2022/01/25 10:17:36;;;;;;;;;58.75;46.75;;;;;4.82;64.15;102970.84;4883259;29;45458;-71
2022/01/25 10:20:04;;;;;;;;;54.25;43.00;;;;;4.81;64.98;102954.09;4877420;29;45476;-71
2022/01/25 10:22:47;;;;;;;;;54.75;45.00;;;;;4.89;64.27;102969.28;4878784;29;46163;-71
2022/01/25 10:25:27;;;;;;;;;54.25;45.50;;;;;4.82;64.31;102965.56;4879594;29;45982;-71
2022/01/25 10:27:59;;;;;;;;;65.00;48.25;;;;;4.86;63.83;102979.78;4882792;29;45408;-71
2022/01/25 10:30:25;;;;;;;;;50.25;42.25;;;;;4.86;63.76;102971.84;4882756;29;45312;-71
2022/01/25 10:32:52;;;;;;;;;54.25;43.50;;;;;4.86;64.12;102974.47;4880210;29;45759;-71
2022/01/25 10:35:17;;;;;;;;;49.25;43.00;;;;;4.84;63.88;102961.19;4882734;29;45450;-72
2022/01/25 10:37:42;;;;;;;;;54.25;42.50;;;;;4.80;64.13;102956.69;4881791;29;45921;-71
2022/01/25 10:40:08;;;;;;;;;52.25;42.50;;;;;4.87;65.11;102968.34;4881778;29;45382;-71
2022/01/25 10:42:35;;;;;;;;;54.75;45.25;;;;;4.94;64.16;102979.13;4881810;29;46719;-71
2022/01/25 10:45:04;;;;;;;;;50.25;41.25;;;;;4.99;64.31;102974.88;4881011;29;45920;-71
2022/01/25 10:47:51;;;;;;;;;62.00;46.75;;;;;5.00;64.07;102975.75;4881892;29;45410;-71
2022/01/25 10:50:26;;;;;;;;;66.00;51.25;;;;;5.01;64.71;102973.16;4877669;29;45396;-71
2022/01/25 10:53:11;;;;;;;;;61.50;44.25;;;;;5.01;64.26;102982.81;4879607;29;47126;-71
2022/01/25 10:55:44;;;;;;;;;56.00;45.25;;;;;5.03;64.22;102986.44;4883071;29;45801;-71
2022/01/25 10:58:10;;;;;;;;;49.00;41.50;;;;;5.04;64.65;102984.66;4881559;29;45721;-71
2022/01/25 11:00:41;;;;;;;;;58.25;44.50;;;;;4.97;64.34;102965.09;4882552;29;45391;-71
2022/01/25 11:03:06;;;;;;;;;62.50;45.25;;;;;5.00;65.03;102976.63;4870574;29;47054;-71
2022/01/25 11:05:34;;;;;;;;;53.25;43.75;;;;;5.02;64.96;102968.75;4882720;29;45408;-71
2022/01/25 11:08:15;;;;;;;;;54.25;44.75;;;;;5.01;64.11;102959.91;4882080;29;45387;-71
2022/01/25 11:10:48;;;;;;;;;55.50;46.25;;;;;5.08;64.86;102971.56;4880385;29;45532;-71
2022/01/25 11:13:33;;;;;;;;;48.50;42.75;;;;;5.06;63.93;102956.47;4875174;29;46333;-75
2022/01/25 11:16:11;;;;;;;;;62.25;47.00;;;;;5.11;64.45;102957.50;4885879;29;45989;-75
2022/01/25 11:18:38;;;;;;;;;59.25;43.00;;;;;5.16;64.74;102955.84;4881012;29;45371;-75
2022/01/25 11:21:09;;;;;;;;;62.50;46.50;;;;;5.19;64.33;102962.16;4881997;29;45370;-75
2022/01/25 11:23:41;;;;;;;;;60.50;47.25;;;;;5.27;64.20;102966.72;4883475;29;45823;-75
2022/01/25 11:26:11;;;;;;;;;63.00;46.25;;;;;5.29;63.98;102965.91;4886121;29;45523;-75
2022/01/25 11:28:38;;;;;;;;;51.50;42.50;;;;;5.23;63.77;102948.97;4885299;29;45479;-74
2022/01/25 11:31:08;;;;;;;;;62.00;46.00;;;;;5.29;63.88;102968.53;4885715;29;45706;-75
2022/01/25 11:33:38;;;;;;;;;64.50;46.25;;;;;5.32;63.65;102965.09;4884845;29;45480;-75
2022/01/25 11:36:11;;;;;;;;;53.75;45.50;;;;;5.30;63.76;102962.41;4885840;29;46175;-75
2022/01/25 11:38:47;;;;;;;;;52.25;42.00;;;;;5.41;63.27;102978.56;4884571;29;45644;-75
2022/01/25 11:41:15;;;;;;;;;52.00;44.25;;;;;5.44;63.44;102964.50;4885921;29;45388;-74
2022/01/25 11:44:04;;;;;;;;;51.25;42.00;;;;;5.46;63.57;102971.59;4885524;29;46306;-75
2022/01/25 11:46:30;;;;;;;;;47.75;40.75;;;;;5.45;64.48;102968.97;4885821;29;45782;-75
2022/01/25 11:49:03;;;;;;;;;47.75;43.50;;;;;5.42;63.88;102964.47;4882194;29;45324;-75
2022/01/25 11:51:29;;;;;;;;;60.50;51.00;;;;;5.40;63.33;102960.88;4885707;29;45251;-75
2022/01/25 11:53:54;;;;;;;;;55.00;43.25;;;;;5.42;63.46;102969.75;4884357;29;45346;-75
2022/01/25 11:56:19;;;;;;;;;60.75;47.00;;;;;5.44;63.37;102967.16;4900278;29;45338;-75
2022/01/25 11:58:57;;;;;;;;;57.75;45.00;;;;;5.42;63.90;102951.22;4885851;29;45517;-75
2022/01/25 12:01:25;;;;;;;;;58.00;46.00;;;;;5.43;64.00;102946.81;4885538;29;45420;-75
2022/01/25 12:04:05;;;;;;;;;57.25;45.00;;;;;5.48;64.23;102950.47;4885170;29;46480;-75
2022/01/25 12:06:38;;;;;;;;;58.25;45.75;;;;;5.42;63.80;102939.75;4884635;29;45263;-74
2022/01/25 12:09:41;;;;;;;;;60.50;45.50;;;;;5.46;63.09;102942.47;4885716;29;45236;-74
2022/01/25 12:12:11;;;;;;;;;59.50;46.25;;;;;5.48;64.08;102940.78;4885183;29;45320;-74
2022/01/25 12:14:40;;;;;;;;;62.50;47.75;;;;;5.54;63.47;102955.91;4883818;29;45531;-74
2022/01/25 12:17:10;;;;;;;;;56.25;43.75;;;;;5.59;63.12;102948.09;4885363;29;45310;-74
2022/01/25 12:19:48;;;;;;;;;63.00;49.00;;;;;5.60;64.13;102941.91;4885426;29;45329;-74
2022/01/25 12:25:08;;;;;;;;;59.75;47.75;;;;;5.64;63.82;102931.41;4883508;29;45320;-74
2022/01/25 12:27:56;;;;;;;;;56.00;44.75;;;;;5.66;63.29;102924.41;4875099;29;45365;-74
2022/01/25 12:30:40;;;;;;;;;60.75;45.00;;;;;5.70;63.06;102923.63;4879281;29;45518;-72
2022/01/25 12:33:12;;;;;;;;;61.75;49.00;;;;;5.69;63.69;102924.47;4875912;29;45753;-72
2022/01/25 12:35:38;;;;;;;;;54.25;41.25;;;;;5.68;64.14;102922.69;4878310;29;46651;-72
2022/01/25 12:38:12;;;;;;;;;59.33;47.00;;;;;5.70;63.49;102926.28;4877360;29;45701;-72
2022/01/25 12:40:42;;;;;;;;;65.75;50.75;;;;;5.72;63.28;102919.25;4878904;29;45363;-71
2022/01/25 12:43:15;;;;;;;;;65.00;50.50;;;;;5.64;63.41;102904.94;4872272;29;45499;-71
2022/01/25 12:45:47;;;;;;;;;63.00;48.25;;;;;5.77;63.53;102926.41;4880506;29;47097;-72
2022/01/25 12:48:16;;;;;;;;;61.25;47.75;;;;;5.78;63.13;102921.16;4874058;29;45990;-72
2022/01/25 12:50:45;;;;;;;;;60.50;48.50;;;;;5.77;63.59;102914.06;4883768;29;45617;-72
2022/01/25 12:53:13;;;;;;;;;25.75;12.00;;;;;5.77;63.55;102906.09;4889748;28;45518;-71
2022/01/25 12:55:42;;;;;;;;;61.25;47.00;;;;;5.83;63.19;102918.59;4880675;29;46205;-72
2022/01/25 12:58:07;;;;;;;;;61.00;47.75;;;;;5.83;63.10;102913.28;4881167;29;45832;-72
2022/01/25 13:00:37;;;;;;;;;61.00;48.75;;;;;5.87;63.19;102916.03;4882124;29;46188;-75
2022/01/25 13:03:13;;;;;;;;;66.50;47.50;;;;;5.91;63.70;102909.97;4884660;29;45308;-74
2022/01/25 13:05:52;;;;;;;;;57.00;44.75;;;;;5.83;63.28;102894.72;4884476;29;45303;-74
2022/01/25 13:08:20;;;;;;;;;59.75;49.00;;;;;5.88;63.30;102914.28;4884873;29;45879;-75
2022/01/25 13:10:45;;;;;;;;;66.00;50.00;;;;;5.84;63.35;102910.66;4898782;29;45208;-75
2022/01/25 13:13:45;;;;;;;;;57.25;46.50;;;;;5.74;63.75;102901.63;4884697;29;45649;-75